createdAt,value
2018-06-17T00:01:27.226Z,13.58
2018-06-17T00:04:37.538Z,13.13
2018-06-17T00:07:47.988Z,13.93
2018-06-17T00:10:58.527Z,15.15
2018-06-17T00:14:09.178Z,12.05
2018-06-17T00:17:19.754Z,13.62
2018-06-17T00:20:29.743Z,14.03
2018-06-17T00:23:39.667Z,13.55
2018-06-17T00:26:50.559Z,11.70
2018-06-17T00:30:01.390Z,13.85
2018-06-17T00:33:12.051Z,14.80
2018-06-17T00:36:22.775Z,13.35
2018-06-17T00:39:32.726Z,12.20
2018-06-17T00:42:42.569Z,14.40
2018-06-17T00:45:53.877Z,10.13
2018-06-17T00:49:04.206Z,11.30
2018-06-17T00:52:14.740Z,13.78
2018-06-17T00:55:25.364Z,12.10
2018-06-17T00:58:35.827Z,13.28
2018-06-17T01:01:46.569Z,13.62
2018-06-17T01:04:57.496Z,12.43
2018-06-17T01:08:08.249Z,12.03
2018-06-17T01:11:19.092Z,11.55
2018-06-17T01:14:29.152Z,11.73
2018-06-17T01:17:39.276Z,11.50
2018-06-17T01:20:49.852Z,14.23
2018-06-17T01:24:00.712Z,15.20
2018-06-17T01:27:11.342Z,15.45
2018-06-17T01:30:21.308Z,14.35
2018-06-17T01:33:31.249Z,11.83
2018-06-17T01:36:41.996Z,12.82
2018-06-17T01:39:52.744Z,11.43
2018-06-17T01:43:03.541Z,10.85
2018-06-17T01:46:14.363Z,12.65
2018-06-17T01:49:24.314Z,13.05
2018-06-17T01:52:35.205Z,14.55
2018-06-17T01:55:45.756Z,13.30
2018-06-17T01:58:56.451Z,10.38
2018-06-17T02:02:07.360Z,13.18
2018-06-17T02:06:24.645Z,13.72
2018-06-17T02:09:40.560Z,14.15
2018-06-17T02:12:50.833Z,12.03
2018-06-17T02:16:01.923Z,10.63
2018-06-17T02:19:13.420Z,13.38
2018-06-17T02:22:25.821Z,12.37
2018-06-17T02:25:38.036Z,15.28
2018-06-17T02:28:51.569Z,14.05
2018-06-17T02:32:05.201Z,13.88
2018-06-17T02:35:23.202Z,11.15
2018-06-17T02:38:36.576Z,13.15
2018-06-17T02:41:47.295Z,12.05
2018-06-17T02:45:02.821Z,11.50
2018-06-17T02:48:18.711Z,13.72
2018-06-17T02:51:34.307Z,13.80
2018-06-17T02:54:46.798Z,11.25
2018-06-17T02:57:56.920Z,14.68
2018-06-17T03:01:08.157Z,12.70
2018-06-17T03:04:18.908Z,13.13
2018-06-17T03:07:29.728Z,13.75
2018-06-17T03:10:53.431Z,14.20
2018-06-17T03:14:04.186Z,11.55
2018-06-17T03:17:14.969Z,14.45
2018-06-17T03:20:26.240Z,12.93
2018-06-17T03:23:36.791Z,11.30
2018-06-17T03:26:53.361Z,12.05
2018-06-17T03:30:11.852Z,12.93
2018-06-17T03:33:28.565Z,14.55
2018-06-17T03:36:39.314Z,12.70
2018-06-17T03:39:50.114Z,11.75
2018-06-17T03:43:01.245Z,15.18
2018-06-17T03:46:11.512Z,11.45
2018-06-17T03:49:22.412Z,12.98
2018-06-17T03:52:33.819Z,15.63
2018-06-17T03:55:43.942Z,12.30
2018-06-17T03:58:54.983Z,13.30
2018-06-17T04:02:06.802Z,12.45
2018-06-17T04:05:23.124Z,10.13
2018-06-17T04:08:33.783Z,11.50
2018-06-17T04:11:44.097Z,9.65
2018-06-17T04:14:54.226Z,12.98
2018-06-17T04:18:05.383Z,10.68
2018-06-17T04:21:15.993Z,11.70
2018-06-17T04:24:26.537Z,11.75
2018-06-17T04:27:37.471Z,11.22
2018-06-17T04:30:48.169Z,11.53
2018-06-17T04:33:58.361Z,9.93
2018-06-17T04:37:08.765Z,11.63
2018-06-17T04:40:19.572Z,10.72
2018-06-17T04:43:30.494Z,9.25
2018-06-17T04:46:41.596Z,11.48
2018-06-17T04:49:52.620Z,12.88
2018-06-17T04:53:03.473Z,12.98
2018-06-17T04:56:14.513Z,10.82
2018-06-17T04:59:25.496Z,11.40
2018-06-17T05:02:36.291Z,11.25
2018-06-17T05:05:49.824Z,12.88
2018-06-17T05:09:01.170Z,13.13
2018-06-17T05:12:12.170Z,10.85
2018-06-17T05:15:23.089Z,11.28
2018-06-17T05:18:33.709Z,11.85
2018-06-17T05:21:48.384Z,11.50
2018-06-17T05:24:58.322Z,10.32
2018-06-17T05:28:10.086Z,11.60
2018-06-17T05:31:21.305Z,10.53
2018-06-17T05:34:33.193Z,9.40
2018-06-17T05:37:44.280Z,10.10
2018-06-17T05:40:54.598Z,10.13
2018-06-17T05:44:06.291Z,10.55
2018-06-17T05:47:17.627Z,8.93
2018-06-17T05:50:28.016Z,10.58
2018-06-17T05:53:39.095Z,11.50
2018-06-17T05:56:49.675Z,9.43
2018-06-17T06:00:00.574Z,13.00
2018-06-17T06:03:11.092Z,11.33
2018-06-17T06:06:23.412Z,9.25
2018-06-17T06:09:34.512Z,10.68
2018-06-17T06:12:46.729Z,10.80
2018-06-17T06:16:02.312Z,9.25
2018-06-17T06:19:13.269Z,10.80
2018-06-17T06:22:24.204Z,8.70
2018-06-17T06:25:35.127Z,9.60
2018-06-17T06:28:46.295Z,11.15
2018-06-17T06:31:56.991Z,9.08
2018-06-17T06:35:07.941Z,8.93
2018-06-17T06:38:18.816Z,10.88
2018-06-17T06:41:29.635Z,10.30
2018-06-17T06:44:40.809Z,10.28
2018-06-17T06:47:52.081Z,11.78
2018-06-17T06:51:05.062Z,10.00
2018-06-17T06:54:24.340Z,11.53
2018-06-17T06:57:35.374Z,8.43
2018-06-17T07:00:47.484Z,8.80
2018-06-17T07:04:09.615Z,10.15
2018-06-17T07:09:38.197Z,10.90
2018-06-17T07:12:58.960Z,9.00
2018-06-17T07:16:25.014Z,11.10
2018-06-17T07:19:37.009Z,10.23
2018-06-17T07:22:48.255Z,9.03
2018-06-17T07:26:43.220Z,9.50
2018-06-17T07:29:54.811Z,7.90
2018-06-17T07:33:05.313Z,8.27
2018-06-17T07:36:15.928Z,7.87
2018-06-17T07:41:34.885Z,9.10
2018-06-17T07:44:45.709Z,6.90
2018-06-17T07:47:55.668Z,7.33
2018-06-17T07:51:17.378Z,8.57
2018-06-17T07:54:28.101Z,7.00
2018-06-17T07:57:38.649Z,10.27
2018-06-17T08:00:50.089Z,7.83
2018-06-17T08:04:09.666Z,6.97
2018-06-17T08:07:19.953Z,8.77
2018-06-17T08:10:31.046Z,7.57
2018-06-17T08:13:51.495Z,7.33
2018-06-17T08:17:03.281Z,4.60
2018-06-17T08:20:15.480Z,6.60
2018-06-17T08:23:33.438Z,8.17
2018-06-17T08:26:51.847Z,10.10
2018-06-17T08:30:05.866Z,7.33
2018-06-17T08:33:27.190Z,7.93
2018-06-17T08:36:44.119Z,6.00
2018-06-17T08:39:54.582Z,7.13
2018-06-17T08:43:05.885Z,6.63
2018-06-17T08:46:16.508Z,10.60
2018-06-17T08:49:27.510Z,6.70
2018-06-17T08:52:38.535Z,10.20
2018-06-17T08:55:49.870Z,11.60
2018-06-17T08:59:01.751Z,15.77
2018-06-17T09:02:22.364Z,10.77
2018-06-17T09:05:32.895Z,9.83
2018-06-17T09:08:43.788Z,12.00
2018-06-17T09:11:59.246Z,12.10
2018-06-17T09:15:10.703Z,13.70
2018-06-17T09:18:32.013Z,12.17
2018-06-17T09:21:52.180Z,10.50
2018-06-17T09:25:05.280Z,11.83
2018-06-17T09:28:27.065Z,12.63
2018-06-17T09:31:38.102Z,12.87
2018-06-17T09:34:48.454Z,11.20
2018-06-17T09:38:01.434Z,11.73
2018-06-17T09:41:12.213Z,12.37
2018-06-17T09:44:23.762Z,13.70
2018-06-17T09:47:37.835Z,14.07
2018-06-17T09:50:49.921Z,11.80
2018-06-17T09:54:02.403Z,10.70
2018-06-17T09:57:15.074Z,15.03
2018-06-17T10:00:26.297Z,13.40
2018-06-17T10:03:38.429Z,12.27
2018-06-17T10:06:48.960Z,13.30
2018-06-17T10:11:14.455Z,13.97
2018-06-17T10:14:25.591Z,13.60
2018-06-17T10:17:37.113Z,10.70
2018-06-17T10:20:47.729Z,19.20
2018-06-17T10:23:58.260Z,11.37
2018-06-17T10:27:10.035Z,12.00
2018-06-17T10:30:27.578Z,12.30
2018-06-17T10:33:46.518Z,11.10
2018-06-17T10:36:57.836Z,14.60
2018-06-17T10:40:10.741Z,10.07
2018-06-17T10:43:23.831Z,13.60
2018-06-17T10:46:34.908Z,12.90
2018-06-17T10:49:47.012Z,9.03
2018-06-17T10:52:59.893Z,10.17
2018-06-17T10:56:12.988Z,8.90
2018-06-17T10:59:23.875Z,6.07
2018-06-17T11:02:37.006Z,6.37
2018-06-17T11:05:51.370Z,5.37
2018-06-17T11:09:17.702Z,7.57
2018-06-17T11:12:28.872Z,7.37
2018-06-17T11:15:46.842Z,6.70
2018-06-17T11:19:07.315Z,7.08
2018-06-17T11:22:31.004Z,6.45
2018-06-17T11:25:42.057Z,6.50
2018-06-17T11:28:58.700Z,8.05
2018-06-17T11:32:10.257Z,6.42
2018-06-17T11:35:37.723Z,10.20
2018-06-17T11:38:50.233Z,6.67
2018-06-17T11:42:06.361Z,6.60
2018-06-17T11:45:24.483Z,7.00
2018-06-17T11:48:36.797Z,7.10
2018-06-17T11:51:54.946Z,6.22
2018-06-17T11:55:18.524Z,6.05
2018-06-17T11:58:40.817Z,5.33
2018-06-17T12:01:51.970Z,7.72
2018-06-17T12:05:04.423Z,4.42
2018-06-17T12:08:16.971Z,3.87
2018-06-17T12:11:34.058Z,4.50
2018-06-17T12:14:44.988Z,4.62
2018-06-17T12:17:55.208Z,6.20
2018-06-17T12:21:09.593Z,8.78
2018-06-17T12:24:22.404Z,7.20
2018-06-17T12:27:36.611Z,7.40
2018-06-17T12:30:48.485Z,7.33
2018-06-17T12:34:05.524Z,8.25
2018-06-17T12:37:17.132Z,8.57
2018-06-17T12:40:29.494Z,9.40
2018-06-17T12:43:40.593Z,8.33
2018-06-17T12:46:54.728Z,12.30
2018-06-17T12:50:05.959Z,11.80
2018-06-17T12:53:16.857Z,13.70
2018-06-17T12:56:28.655Z,11.00
2018-06-17T12:59:51.686Z,11.30
2018-06-17T13:03:03.382Z,10.40
2018-06-17T13:06:14.783Z,11.67
2018-06-17T13:09:25.148Z,9.83
2018-06-17T13:12:35.815Z,11.90
2018-06-17T13:15:47.169Z,10.83
2018-06-17T13:18:58.194Z,10.47
2018-06-17T13:22:09.538Z,12.20
2018-06-17T13:25:22.500Z,12.57
2018-06-17T13:28:41.932Z,11.97
2018-06-17T13:31:58.911Z,11.13
2018-06-17T13:35:10.702Z,10.10
2018-06-17T13:38:22.405Z,5.97
2018-06-17T13:41:37.416Z,7.33
2018-06-17T13:44:48.819Z,9.27
2018-06-17T13:47:59.582Z,9.20
2018-06-17T13:51:10.266Z,8.50
2018-06-17T13:54:21.790Z,7.23
2018-06-17T13:57:32.879Z,7.58
2018-06-17T14:00:51.400Z,7.93
2018-06-17T14:04:02.026Z,10.93
2018-06-17T14:07:12.928Z,10.80
2018-06-17T14:10:24.009Z,9.85
2018-06-17T14:13:36.700Z,7.78
2018-06-17T14:16:47.421Z,8.60
2018-06-17T14:19:58.216Z,7.20
2018-06-17T14:23:09.001Z,9.30
2018-06-17T14:26:18.875Z,9.48
2018-06-17T14:29:29.757Z,9.50
2018-06-17T14:32:40.632Z,13.80
2018-06-17T14:35:50.673Z,10.35
2018-06-17T14:39:00.729Z,14.58
2018-06-17T14:42:16.258Z,13.20
2018-06-17T14:45:32.476Z,15.18
2018-06-17T14:48:47.897Z,8.38
2018-06-17T14:52:03.582Z,11.90
2018-06-17T14:55:14.720Z,11.55
2018-06-17T14:58:25.081Z,11.48
2018-06-17T15:01:36.398Z,10.13
2018-06-17T15:04:46.422Z,10.50
2018-06-17T15:07:57.123Z,7.78
2018-06-17T15:11:07.680Z,9.08
2018-06-17T15:14:18.408Z,8.88
2018-06-17T15:17:29.266Z,8.88
2018-06-17T15:20:40.148Z,9.35
2018-06-17T15:23:52.195Z,8.90
2018-06-17T15:27:02.216Z,10.72
2018-06-17T15:30:12.027Z,12.65
2018-06-17T15:33:27.373Z,11.75
2018-06-17T15:36:43.252Z,12.70
2018-06-17T15:39:55.662Z,12.50
2018-06-17T15:43:06.990Z,11.28
2018-06-17T15:46:17.521Z,10.70
2018-06-17T15:49:28.346Z,9.90
2018-06-17T15:52:38.449Z,10.30
2018-06-17T15:55:48.644Z,10.45
2018-06-17T15:58:59.544Z,10.72
2018-06-17T16:02:09.840Z,9.65
2018-06-17T16:05:19.660Z,8.57
2018-06-17T16:08:29.485Z,9.60
2018-06-17T16:11:45.247Z,8.13
2018-06-17T16:15:00.463Z,9.70
2018-06-17T16:19:19.558Z,10.08
2018-06-17T16:22:29.808Z,9.95
2018-06-17T16:25:41.218Z,9.88
2018-06-17T16:28:51.546Z,8.55
2018-06-17T16:32:02.155Z,10.25
2018-06-17T16:35:12.925Z,9.08
2018-06-17T16:38:23.943Z,9.60
2018-06-17T16:41:34.448Z,9.18
2018-06-17T16:44:45.265Z,9.33
2018-06-17T16:47:56.032Z,8.83
2018-06-17T16:51:12.331Z,9.65
2018-06-17T16:54:27.513Z,7.90
2018-06-17T16:57:43.354Z,9.35
2018-06-17T17:00:53.710Z,8.75
2018-06-17T17:04:05.108Z,9.13
2018-06-17T17:07:15.204Z,11.10
2018-06-17T17:10:25.944Z,9.35
2018-06-17T17:13:36.525Z,10.15
2018-06-17T17:16:46.742Z,10.78
2018-06-17T17:19:57.637Z,12.60
2018-06-17T17:23:08.476Z,10.65
2018-06-17T17:26:19.688Z,10.32
2018-06-17T17:29:30.160Z,8.80
2018-06-17T17:33:49.044Z,10.78
2018-06-17T17:37:04.392Z,11.22
2018-06-17T17:40:19.788Z,10.32
2018-06-17T17:43:31.107Z,9.38
2018-06-17T17:46:46.714Z,10.13
2018-06-17T17:49:57.467Z,10.18
2018-06-17T17:53:08.274Z,11.12
2018-06-17T17:56:18.523Z,11.60
2018-06-17T17:59:29.153Z,13.68
2018-06-17T18:02:39.424Z,11.83
2018-06-17T18:05:49.637Z,9.75
2018-06-17T18:08:59.544Z,11.33
2018-06-17T18:12:11.489Z,9.35
2018-06-17T18:15:22.452Z,11.53
2018-06-17T18:18:36.473Z,12.37
2018-06-17T18:21:47.196Z,12.43
2018-06-17T18:25:04.601Z,9.78
2018-06-17T18:28:20.686Z,10.68
2018-06-17T18:31:35.207Z,11.95
2018-06-17T18:34:51.110Z,9.38
2018-06-17T18:38:01.176Z,11.97
2018-06-17T18:41:13.734Z,10.50
2018-06-17T18:44:24.090Z,12.55
2018-06-17T18:47:34.847Z,10.88
2018-06-17T18:50:46.104Z,10.10
2018-06-17T18:53:56.342Z,12.25
2018-06-17T18:57:06.344Z,10.82
2018-06-17T19:00:17.076Z,14.03
2018-06-17T19:03:27.802Z,10.43
2018-06-17T19:06:38.648Z,10.90
2018-06-17T19:09:54.315Z,12.47
2018-06-17T19:13:10.101Z,12.70
2018-06-17T19:16:25.844Z,11.18
2018-06-17T19:19:35.955Z,11.93
2018-06-17T19:22:46.166Z,10.15
2018-06-17T19:25:57.121Z,10.28
2018-06-17T19:29:08.111Z,10.88
2018-06-17T19:32:18.874Z,10.35
2018-06-17T19:35:29.805Z,9.93
2018-06-17T19:38:40.343Z,10.03
2018-06-17T19:41:51.299Z,9.85
2018-06-17T19:45:03.050Z,9.43
2018-06-17T19:48:14.085Z,9.70
2018-06-17T19:51:30.066Z,9.65
2018-06-17T19:54:52.440Z,9.80
2018-06-17T19:58:07.682Z,12.78
2018-06-17T20:01:18.121Z,11.68
2018-06-17T20:04:28.789Z,8.15
2018-06-17T20:07:40.545Z,11.40
2018-06-17T20:10:53.425Z,10.35
2018-06-17T20:14:04.515Z,10.15
2018-06-17T20:17:16.436Z,10.88
2018-06-17T20:20:27.594Z,14.38
2018-06-17T20:23:40.632Z,10.28
2018-06-17T20:26:52.392Z,9.50
2018-06-17T20:30:03.783Z,11.53
2018-06-17T20:33:19.278Z,11.63
2018-06-17T20:36:36.114Z,8.78
2018-06-17T20:39:52.321Z,11.53
2018-06-17T20:43:07.460Z,12.55
2018-06-17T20:46:18.198Z,10.15
2018-06-17T20:49:29.050Z,10.65
2018-06-17T20:52:39.651Z,10.60
2018-06-17T20:55:50.400Z,11.43
2018-06-17T20:59:00.364Z,10.68
2018-06-17T21:02:10.279Z,9.25
2018-06-17T21:05:21.142Z,11.38
2018-06-17T21:08:32.041Z,10.45
2018-06-17T21:11:42.550Z,11.78
2018-06-17T21:14:53.360Z,10.88
2018-06-17T21:18:04.171Z,9.75
2018-06-17T21:21:20.552Z,8.75
2018-06-17T21:24:36.134Z,7.92
2018-06-17T21:27:50.257Z,8.40
2018-06-17T21:31:00.894Z,9.63
2018-06-17T21:34:11.892Z,10.28
2018-06-17T21:37:22.105Z,11.25
2018-06-17T21:40:32.511Z,10.00
2018-06-17T21:43:43.023Z,10.70
2018-06-17T21:46:52.858Z,9.35
2018-06-17T21:50:03.791Z,10.85
2018-06-17T21:53:14.392Z,11.75
2018-06-17T21:56:24.696Z,9.25
2018-06-17T21:59:34.675Z,13.35
2018-06-17T22:02:45.403Z,11.45
2018-06-17T22:05:55.956Z,11.25
2018-06-17T22:11:16.938Z,11.00
2018-06-17T22:14:32.179Z,8.80
2018-06-17T22:17:48.071Z,11.55
2018-06-17T22:20:58.964Z,13.30
2018-06-17T22:24:09.128Z,10.20
2018-06-17T22:27:19.075Z,8.90
2018-06-17T22:30:29.148Z,8.55
2018-06-17T22:33:40.283Z,10.03
2018-06-17T22:36:51.194Z,8.68
2018-06-17T22:40:01.941Z,12.50
2018-06-17T22:43:11.855Z,11.68
2018-06-17T22:46:22.612Z,12.82
2018-06-17T22:49:32.505Z,9.10
2018-06-17T22:52:54.494Z,10.43
2018-06-17T22:56:09.273Z,10.03
2018-06-17T22:59:25.543Z,10.50
2018-06-17T23:02:40.863Z,9.15
2018-06-17T23:05:57.043Z,9.90
2018-06-17T23:09:13.547Z,9.50
2018-06-17T23:12:23.999Z,10.90
2018-06-17T23:15:34.039Z,8.65
2018-06-17T23:18:44.801Z,11.68
2018-06-17T23:21:54.936Z,8.03
2018-06-17T23:25:05.694Z,11.33
2018-06-17T23:28:15.667Z,11.63
2018-06-17T23:31:25.849Z,8.55
2018-06-17T23:34:36.340Z,8.75
2018-06-17T23:37:46.613Z,9.28
2018-06-17T23:40:57.454Z,9.93
2018-06-17T23:44:08.269Z,11.12
2018-06-17T23:47:23.508Z,10.32
2018-06-17T23:50:39.301Z,8.30
2018-06-17T23:53:55.222Z,7.80
2018-06-17T23:57:05.977Z,9.23
